createdAt,value
2023-11-18T00:02:25.854Z,98.66
2023-11-18T00:04:53.874Z,98.16
2023-11-18T00:07:21.669Z,98.24
2023-11-18T00:09:49.529Z,98.51
2023-11-18T00:12:17.487Z,98.20
2023-11-18T00:14:46.596Z,98.07
2023-11-18T00:17:14.427Z,97.85
2023-11-18T00:19:43.746Z,98.39
2023-11-18T00:22:12.239Z,97.83
2023-11-18T00:24:40.079Z,98.13
2023-11-18T00:27:07.819Z,98.22
2023-11-18T00:29:35.751Z,98.15
2023-11-18T00:32:04.280Z,98.34
2023-11-18T00:34:32.776Z,98.49
2023-11-18T00:37:02.070Z,98.51
2023-11-18T00:39:29.983Z,98.39
2023-11-18T00:41:57.957Z,98.62
2023-11-18T00:44:25.814Z,97.91
2023-11-18T00:46:53.689Z,98.21
2023-11-18T00:49:21.676Z,98.47
2023-11-18T00:51:49.462Z,97.74
2023-11-18T00:54:18.705Z,97.99
2023-11-18T00:56:46.572Z,98.92
2023-11-18T00:59:14.377Z,99.08
2023-11-18T01:01:42.455Z,98.71
2023-11-18T01:04:10.457Z,99.15
2023-11-18T01:06:38.993Z,98.98
2023-11-18T01:09:07.981Z,98.92
2023-11-18T01:11:37.685Z,98.56
2023-11-18T01:14:05.689Z,98.59
2023-11-18T01:16:34.146Z,98.20
2023-11-18T01:19:02.145Z,98.64
2023-11-18T01:21:29.977Z,98.59
2023-11-18T01:23:57.871Z,99.28
2023-11-18T01:26:25.635Z,99.24
2023-11-18T01:28:56.637Z,98.78
2023-11-18T01:31:24.571Z,98.31
2023-11-18T01:33:52.395Z,98.66
2023-11-18T01:36:20.244Z,98.41
2023-11-18T01:38:48.508Z,97.92
2023-11-18T01:41:16.432Z,98.12
2023-11-18T01:43:47.967Z,98.33
2023-11-18T01:46:20.885Z,98.46
2023-11-18T01:48:48.772Z,98.83
2023-11-18T01:51:16.666Z,99.22
2023-11-18T01:53:46.216Z,98.73
2023-11-18T01:56:14.018Z,98.51
2023-11-18T01:58:42.110Z,98.22
2023-11-18T02:01:11.279Z,98.26
2023-11-18T02:03:42.107Z,97.77
2023-11-18T02:06:11.743Z,97.28
2023-11-18T02:08:39.972Z,97.98
2023-11-18T02:11:17.541Z,97.55
2023-11-18T02:13:49.495Z,97.60
2023-11-18T02:16:18.956Z,98.24
2023-11-18T02:18:50.370Z,97.49
2023-11-18T02:21:19.367Z,97.40
2023-11-18T02:23:50.131Z,97.23
2023-11-18T02:26:24.551Z,97.11
2023-11-18T02:28:53.647Z,97.40
2023-11-18T02:31:30.665Z,97.15
2023-11-18T02:34:05.077Z,97.49
2023-11-18T02:36:37.452Z,97.77
2023-11-18T02:39:09.393Z,97.73
2023-11-18T02:41:41.454Z,97.85
2023-11-18T02:44:11.346Z,97.58
2023-11-18T02:46:40.785Z,97.91
2023-11-18T02:49:09.453Z,97.79
2023-11-18T02:51:40.352Z,97.86
2023-11-18T02:54:11.528Z,97.35
2023-11-18T02:56:41.015Z,96.95
2023-11-18T02:59:08.764Z,97.04
2023-11-18T03:01:36.818Z,96.98
2023-11-18T03:04:05.950Z,96.63
2023-11-18T03:06:34.839Z,96.31
2023-11-18T03:09:02.658Z,96.99
2023-11-18T03:11:31.201Z,96.83
2023-11-18T03:14:00.472Z,96.97
2023-11-18T03:16:28.549Z,96.72
2023-11-18T03:18:57.021Z,96.56
2023-11-18T03:21:24.951Z,95.64
2023-11-18T03:23:53.998Z,95.49
2023-11-18T03:26:22.206Z,95.21
2023-11-18T03:28:50.864Z,95.60
2023-11-18T03:31:20.887Z,95.38
2023-11-18T03:33:48.749Z,94.94
2023-11-18T03:36:18.741Z,94.53
2023-11-18T03:38:46.729Z,93.23
2023-11-18T03:41:15.062Z,90.98
2023-11-18T03:43:43.012Z,90.32
2023-11-18T03:46:12.061Z,90.83
2023-11-18T03:48:41.348Z,91.62
2023-11-18T03:51:09.153Z,92.24
2023-11-18T03:53:37.032Z,92.93
2023-11-18T03:56:05.974Z,92.71
2023-11-18T03:58:34.056Z,93.05
2023-11-18T04:01:02.529Z,93.21
2023-11-18T04:03:30.486Z,92.58
2023-11-18T04:05:59.627Z,92.91
2023-11-18T04:08:28.250Z,92.52
2023-11-18T04:10:56.039Z,91.78
2023-11-18T04:13:24.147Z,91.80
2023-11-18T04:15:52.532Z,91.92
2023-11-18T04:18:20.272Z,91.53
2023-11-18T04:20:51.584Z,91.37
2023-11-18T04:23:20.913Z,91.52
2023-11-18T04:25:48.828Z,91.04
2023-11-18T04:28:16.747Z,90.83
2023-11-18T04:30:44.646Z,90.52
2023-11-18T04:33:15.315Z,90.27
2023-11-18T04:35:43.203Z,90.33
2023-11-18T04:38:11.096Z,90.52
2023-11-18T04:40:42.221Z,90.75
2023-11-18T04:43:11.946Z,91.39
2023-11-18T04:45:40.120Z,91.01
2023-11-18T04:48:08.143Z,91.85
2023-11-18T04:50:36.091Z,91.11
2023-11-18T04:53:05.674Z,91.01
2023-11-18T04:55:33.536Z,90.91
2023-11-18T04:58:02.751Z,91.30
2023-11-18T05:00:30.639Z,91.41
2023-11-18T05:03:00.009Z,91.85
2023-11-18T05:05:27.936Z,91.47
2023-11-18T05:07:55.792Z,91.97
2023-11-18T05:10:23.931Z,91.63
2023-11-18T05:12:56.836Z,91.62
2023-11-18T05:15:26.729Z,92.02
2023-11-18T05:17:55.191Z,92.36
2023-11-18T05:20:23.261Z,92.43
2023-11-18T05:22:51.081Z,92.31
2023-11-18T05:25:18.826Z,92.63
2023-11-18T05:27:46.615Z,92.70
2023-11-18T05:30:15.227Z,92.22
2023-11-18T05:32:44.428Z,92.44
2023-11-18T05:35:12.959Z,92.43
2023-11-18T05:37:42.188Z,92.63
2023-11-18T05:40:12.679Z,92.45
2023-11-18T05:42:42.678Z,93.00
2023-11-18T05:45:18.515Z,93.02
2023-11-18T05:47:47.914Z,92.89
2023-11-18T05:50:16.815Z,92.65
2023-11-18T05:52:44.785Z,92.47
2023-11-18T05:55:12.597Z,92.73
2023-11-18T05:57:40.388Z,92.24
2023-11-18T06:00:10.297Z,92.29
2023-11-18T06:02:40.738Z,92.24
2023-11-18T06:05:13.575Z,91.91
2023-11-18T06:07:44.535Z,91.86
2023-11-18T06:10:13.791Z,91.27
2023-11-18T06:12:42.159Z,90.96
2023-11-18T06:15:15.422Z,90.69
2023-11-18T06:17:46.838Z,89.94
2023-11-18T06:20:18.211Z,89.71
2023-11-18T06:22:46.272Z,89.45
2023-11-18T06:25:14.182Z,90.02
2023-11-18T06:27:42.265Z,89.22
2023-11-18T06:30:12.920Z,89.50
2023-11-18T06:32:42.052Z,89.76
2023-11-18T06:35:10.342Z,90.01
2023-11-18T06:37:39.606Z,89.94
2023-11-18T06:40:17.297Z,89.30
2023-11-18T06:42:48.062Z,88.53
2023-11-18T06:45:16.086Z,89.35
2023-11-18T06:47:45.288Z,89.14
2023-11-18T06:50:15.456Z,89.37
2023-11-18T06:52:47.690Z,89.39
2023-11-18T06:55:17.066Z,89.21
2023-11-18T06:57:45.505Z,89.26
2023-11-18T07:00:16.717Z,88.71
2023-11-18T07:02:45.077Z,88.61
2023-11-18T07:05:15.850Z,88.63
2023-11-18T07:07:46.130Z,88.57
2023-11-18T07:10:14.672Z,88.93
2023-11-18T07:12:42.587Z,89.02
2023-11-18T07:15:12.132Z,89.70
2023-11-18T07:17:40.129Z,89.45
2023-11-18T07:20:12.729Z,88.98
2023-11-18T07:22:41.125Z,88.68
2023-11-18T07:25:10.686Z,88.78
2023-11-18T07:27:38.507Z,88.40
2023-11-18T07:30:11.082Z,88.12
2023-11-18T07:32:39.536Z,87.88
2023-11-18T07:35:10.280Z,88.64
2023-11-18T07:37:38.317Z,88.54
2023-11-18T07:40:07.372Z,87.59
2023-11-18T07:42:36.590Z,86.44
2023-11-18T07:45:05.815Z,86.59
2023-11-18T07:47:35.243Z,86.86
2023-11-18T07:50:05.789Z,86.35
2023-11-18T07:52:33.599Z,86.69
2023-11-18T07:55:01.952Z,86.23
2023-11-18T07:57:30.272Z,85.83
2023-11-18T08:00:06.727Z,85.01
2023-11-18T08:02:41.780Z,85.15
2023-11-18T08:05:14.961Z,85.09
2023-11-18T08:07:46.109Z,84.27
2023-11-18T08:10:20.159Z,84.31
2023-11-18T08:12:49.361Z,84.16
2023-11-18T08:15:19.894Z,84.73
2023-11-18T08:17:48.555Z,84.48
2023-11-18T08:20:16.797Z,85.45
2023-11-18T08:22:46.665Z,85.05
2023-11-18T08:25:16.251Z,85.19
2023-11-18T08:27:44.529Z,85.09
2023-11-18T08:30:14.827Z,84.14
2023-11-18T08:32:46.298Z,84.54
2023-11-18T08:35:15.395Z,85.04
2023-11-18T08:37:44.601Z,85.17
2023-11-18T08:40:15.951Z,85.22
2023-11-18T08:42:49.023Z,85.11
2023-11-18T08:45:19.736Z,84.89
2023-11-18T08:47:49.104Z,84.81
2023-11-18T08:50:18.184Z,84.64
2023-11-18T08:52:48.295Z,84.03
2023-11-18T08:55:21.981Z,83.55
2023-11-18T08:57:59.421Z,82.98
2023-11-18T09:00:46.752Z,82.74
2023-11-18T09:03:25.597Z,83.19
2023-11-18T09:06:00.687Z,83.13
2023-11-18T09:08:30.924Z,82.39
2023-11-18T09:10:59.183Z,81.42
2023-11-18T09:13:29.877Z,82.99
2023-11-18T09:15:58.428Z,81.14
2023-11-18T09:18:28.536Z,81.26
2023-11-18T09:20:57.701Z,81.44
2023-11-18T09:23:26.750Z,81.31
2023-11-18T09:25:55.973Z,81.63
2023-11-18T09:28:26.535Z,81.91
2023-11-18T09:30:58.104Z,82.51
2023-11-18T09:33:30.251Z,81.99
2023-11-18T09:36:00.674Z,82.17
2023-11-18T09:38:30.385Z,82.81
2023-11-18T09:41:02.552Z,82.01
2023-11-18T09:43:33.613Z,81.92
2023-11-18T09:46:13.537Z,81.06
2023-11-18T09:48:53.926Z,82.05
2023-11-18T09:51:23.312Z,82.30
2023-11-18T09:53:53.546Z,81.30
2023-11-18T09:56:35.375Z,82.35
2023-11-18T09:59:09.290Z,82.74
2023-11-18T10:01:44.118Z,82.93
2023-11-18T10:04:14.327Z,82.94
2023-11-18T10:06:46.463Z,82.74
2023-11-18T10:09:18.603Z,83.53
2023-11-18T10:11:49.165Z,82.23
2023-11-18T10:14:17.944Z,82.33
2023-11-18T10:16:48.440Z,82.06
2023-11-18T10:19:18.934Z,82.90
2023-11-18T10:21:50.594Z,83.10
2023-11-18T10:24:21.535Z,83.25
2023-11-18T10:26:58.317Z,83.38
2023-11-18T10:29:29.471Z,83.41
2023-11-18T10:32:10.998Z,84.31
2023-11-18T10:34:41.029Z,84.01
2023-11-18T10:37:11.912Z,83.76
2023-11-18T10:39:39.796Z,83.86
2023-11-18T10:42:07.690Z,83.42
2023-11-18T10:44:35.422Z,82.21
2023-11-18T10:47:03.359Z,83.25
2023-11-18T10:49:37.899Z,82.80
2023-11-18T10:52:09.865Z,82.79
2023-11-18T10:54:38.606Z,82.40
2023-11-18T10:57:10.105Z,82.96
2023-11-18T10:59:38.817Z,81.98
2023-11-18T11:02:24.855Z,81.92
2023-11-18T11:04:54.032Z,81.64
2023-11-18T11:07:24.895Z,81.75
2023-11-18T11:09:57.729Z,81.78
2023-11-18T11:12:27.789Z,81.44
2023-11-18T11:15:01.894Z,81.58
2023-11-18T11:17:32.174Z,81.04
2023-11-18T11:20:18.649Z,81.91
2023-11-18T11:23:10.103Z,81.61
2023-11-18T11:25:46.280Z,81.69
2023-11-18T11:28:21.955Z,81.65
2023-11-18T11:30:57.656Z,82.21
2023-11-18T11:33:33.843Z,82.33
2023-11-18T11:36:07.042Z,81.77
2023-11-18T11:38:38.102Z,81.44
2023-11-18T11:41:09.615Z,82.57
2023-11-18T11:43:38.043Z,82.28
2023-11-18T11:46:11.734Z,82.44
2023-11-18T11:48:44.108Z,82.51
2023-11-18T11:51:27.348Z,81.83
2023-11-18T11:54:05.861Z,81.94
2023-11-18T11:56:44.344Z,82.04
2023-11-18T11:59:12.729Z,82.25
2023-11-18T12:01:47.954Z,80.95
2023-11-18T12:04:24.023Z,81.29
2023-11-18T12:07:05.584Z,80.46
2023-11-18T12:09:45.010Z,80.85
2023-11-18T12:12:20.399Z,81.35
2023-11-18T12:14:53.619Z,81.19
2023-11-18T12:17:23.481Z,82.12
2023-11-18T12:19:51.775Z,81.27
2023-11-18T12:22:25.512Z,81.09
2023-11-18T12:25:37.495Z,80.48
2023-11-18T12:28:16.120Z,80.82
2023-11-18T12:30:57.003Z,81.41
2023-11-18T12:33:27.693Z,82.51
2023-11-18T12:36:40.188Z,83.77
2023-11-18T12:39:51.934Z,84.53
2023-11-18T12:42:52.077Z,86.32
2023-11-18T12:45:44.922Z,87.35
2023-11-18T12:48:17.007Z,89.35
2023-11-18T12:50:47.227Z,89.92
2023-11-18T12:53:19.428Z,91.47
2023-11-18T12:55:49.665Z,91.02
2023-11-18T12:58:19.140Z,91.49
2023-11-18T13:00:48.378Z,92.20
2023-11-18T13:03:17.278Z,93.19
2023-11-18T13:05:46.353Z,92.75
2023-11-18T13:08:16.616Z,93.24
2023-11-18T13:10:45.480Z,93.60
2023-11-18T13:13:15.840Z,93.67
2023-11-18T13:15:43.855Z,93.35
2023-11-18T13:18:13.515Z,95.09
2023-11-18T13:20:42.298Z,95.10
2023-11-18T13:23:11.064Z,94.86
2023-11-18T13:25:40.555Z,95.25
2023-11-18T13:28:11.113Z,95.37
2023-11-18T13:30:40.953Z,95.39
2023-11-18T13:33:09.843Z,95.08
2023-11-18T13:35:39.419Z,96.29
2023-11-18T13:38:08.334Z,96.04
2023-11-18T13:40:45.137Z,96.33
2023-11-18T13:43:13.141Z,96.69
2023-11-18T13:45:43.630Z,96.60
2023-11-18T13:48:14.785Z,97.44
2023-11-18T13:50:44.918Z,97.04
2023-11-18T13:53:13.010Z,96.58
2023-11-18T13:55:41.064Z,96.72
2023-11-18T13:58:11.766Z,97.13
2023-11-18T14:00:40.042Z,96.47
2023-11-18T14:03:08.700Z,96.67
2023-11-18T14:05:38.463Z,96.64
2023-11-18T14:08:11.489Z,96.38
2023-11-18T14:10:42.010Z,96.41
2023-11-18T14:13:13.836Z,96.22
2023-11-18T14:15:44.056Z,96.27
2023-11-18T14:18:12.097Z,96.29
2023-11-18T14:20:40.041Z,94.83
2023-11-18T14:23:09.860Z,94.95
2023-11-18T14:25:39.416Z,94.55
2023-11-18T14:28:09.509Z,94.37
2023-11-18T14:30:37.495Z,94.69
2023-11-18T14:33:05.944Z,94.37
2023-11-18T14:35:33.827Z,93.74
2023-11-18T14:38:02.121Z,93.29
2023-11-18T14:40:31.301Z,93.02
2023-11-18T14:42:59.731Z,93.08
2023-11-18T14:45:27.523Z,93.54
2023-11-18T14:47:57.300Z,92.95
2023-11-18T14:50:27.630Z,92.80
2023-11-18T14:53:00.475Z,91.14
2023-11-18T14:55:28.667Z,92.27
2023-11-18T14:57:58.051Z,92.42
2023-11-18T15:00:28.280Z,92.23
2023-11-18T15:02:59.961Z,91.09
2023-11-18T15:05:29.069Z,90.87
2023-11-18T15:07:58.733Z,91.21
2023-11-18T15:10:28.354Z,91.55
2023-11-18T15:12:59.628Z,91.53
2023-11-18T15:15:33.499Z,92.86
2023-11-18T15:18:04.722Z,91.79
2023-11-18T15:20:33.183Z,92.43
2023-11-18T15:23:01.421Z,93.20
2023-11-18T15:25:29.664Z,92.60
2023-11-18T15:27:59.796Z,93.07
2023-11-18T15:30:28.510Z,94.21
2023-11-18T15:32:57.435Z,94.11
2023-11-18T15:35:26.161Z,93.90
2023-11-18T15:37:54.129Z,94.40
2023-11-18T15:40:26.214Z,94.02
2023-11-18T15:42:55.095Z,94.50
2023-11-18T15:45:25.612Z,94.37
2023-11-18T15:47:53.500Z,94.05
2023-11-18T15:50:22.335Z,93.37
2023-11-18T15:52:53.072Z,93.19
2023-11-18T15:55:22.254Z,93.57
2023-11-18T15:57:53.690Z,94.50
2023-11-18T16:00:25.707Z,93.95
2023-11-18T16:02:59.669Z,95.25
2023-11-18T16:05:34.906Z,95.51
2023-11-18T16:08:04.069Z,95.80
2023-11-18T16:10:32.198Z,96.18
2023-11-18T16:13:01.669Z,95.90
2023-11-18T16:15:31.327Z,96.38
2023-11-18T16:18:02.016Z,96.67
2023-11-18T16:20:33.222Z,96.51
2023-11-18T16:23:03.773Z,97.67
2023-11-18T16:25:32.216Z,97.69
2023-11-18T16:28:03.203Z,97.26
2023-11-18T16:30:32.128Z,96.96
2023-11-18T16:33:04.502Z,96.81
2023-11-18T16:35:32.904Z,98.20
2023-11-18T16:38:02.253Z,97.36
2023-11-18T16:40:30.696Z,97.56
2023-11-18T16:43:00.934Z,98.15
2023-11-18T16:45:29.818Z,97.92
2023-11-18T16:47:57.902Z,97.60
2023-11-18T16:50:27.725Z,97.85
2023-11-18T16:52:56.657Z,98.09
2023-11-18T16:55:25.007Z,98.16
2023-11-18T16:57:54.698Z,98.39
2023-11-18T17:00:24.825Z,98.02
2023-11-18T17:02:56.969Z,98.42
2023-11-18T17:05:30.081Z,98.89
2023-11-18T17:07:58.578Z,99.90
2023-11-18T17:10:26.415Z,99.15
2023-11-18T17:12:54.270Z,99.61
2023-11-18T17:15:22.363Z,100.00
2023-11-18T17:17:54.728Z,100.00
2023-11-18T17:20:23.090Z,100.00
2023-11-18T17:22:52.966Z,99.94
2023-11-18T17:25:24.472Z,99.65
2023-11-18T17:27:54.085Z,99.25
2023-11-18T17:30:22.340Z,99.29
2023-11-18T17:32:52.850Z,99.23
2023-11-18T17:35:21.408Z,99.48
2023-11-18T17:37:49.518Z,99.70
2023-11-18T17:40:22.440Z,100.00
2023-11-18T17:42:54.202Z,99.65
2023-11-18T17:45:25.291Z,98.83
2023-11-18T17:47:53.535Z,99.34
2023-11-18T17:50:21.587Z,99.45
2023-11-18T17:52:51.250Z,99.33
2023-11-18T17:55:20.664Z,99.82
2023-11-18T17:57:48.656Z,100.00
2023-11-18T18:00:23.427Z,99.88
2023-11-18T18:02:52.711Z,100.00
2023-11-18T18:05:21.497Z,100.00
2023-11-18T18:07:49.571Z,100.00
2023-11-18T18:10:17.565Z,100.00
2023-11-18T18:12:48.834Z,100.00
2023-11-18T18:15:16.718Z,100.00
2023-11-18T18:17:44.735Z,100.00
2023-11-18T18:20:14.640Z,100.00
2023-11-18T18:22:43.678Z,100.00
2023-11-18T18:25:13.330Z,100.00
2023-11-18T18:27:42.016Z,100.00
2023-11-18T18:30:12.569Z,100.00
2023-11-18T18:32:40.746Z,100.00
2023-11-18T18:35:09.523Z,100.00
2023-11-18T18:37:37.367Z,100.00
2023-11-18T18:40:06.027Z,100.00
2023-11-18T18:42:34.266Z,100.00
2023-11-18T18:45:02.228Z,99.85
2023-11-18T18:47:31.526Z,99.57
2023-11-18T18:50:00.015Z,99.83
2023-11-18T18:52:28.038Z,99.15
2023-11-18T18:54:56.234Z,99.11
2023-11-18T18:57:25.366Z,98.30
2023-11-18T18:59:53.459Z,97.69
2023-11-18T19:02:21.712Z,97.90
2023-11-18T19:04:51.217Z,98.09
2023-11-18T19:07:22.131Z,98.37
2023-11-18T19:09:50.726Z,98.26
2023-11-18T19:12:18.612Z,98.38
2023-11-18T19:14:46.764Z,98.48
2023-11-18T19:17:15.152Z,97.93
2023-11-18T19:19:43.757Z,98.10
2023-11-18T19:22:13.432Z,98.21
2023-11-18T19:24:43.732Z,97.15
2023-11-18T19:27:14.265Z,97.41
2023-11-18T19:29:45.144Z,97.65
2023-11-18T19:32:14.270Z,97.54
2023-11-18T19:34:42.457Z,98.13
2023-11-18T19:37:12.059Z,98.11
2023-11-18T19:39:42.463Z,97.41
2023-11-18T19:42:11.690Z,96.80
2023-11-18T19:44:40.390Z,97.11
2023-11-18T19:47:09.097Z,97.48
2023-11-18T19:49:37.319Z,97.90
2023-11-18T19:52:05.625Z,97.66
2023-11-18T19:54:34.418Z,97.65
2023-11-18T19:57:05.135Z,97.35
2023-11-18T19:59:33.784Z,97.39
2023-11-18T20:02:04.494Z,96.95
2023-11-18T20:04:34.595Z,97.68
2023-11-18T20:07:03.490Z,97.47
2023-11-18T20:09:33.145Z,96.57
2023-11-18T20:12:04.901Z,96.63
2023-11-18T20:14:38.017Z,96.37
2023-11-18T20:17:07.268Z,96.21
2023-11-18T20:19:36.789Z,96.02
2023-11-18T20:22:05.112Z,96.58
2023-11-18T20:24:32.895Z,96.57
2023-11-18T20:27:01.229Z,96.80
2023-11-18T20:29:30.253Z,96.57
2023-11-18T20:32:03.455Z,96.92
2023-11-18T20:34:31.517Z,97.36
2023-11-18T20:36:59.488Z,97.31
2023-11-18T20:39:30.165Z,97.13
2023-11-18T20:42:01.783Z,96.93
2023-11-18T20:44:38.145Z,96.56
2023-11-18T20:47:09.235Z,96.80
2023-11-18T20:49:41.403Z,97.23
2023-11-18T20:52:10.641Z,97.69
2023-11-18T20:54:38.710Z,98.63
2023-11-18T20:57:09.509Z,98.09
2023-11-18T20:59:37.872Z,98.22
2023-11-18T21:02:07.294Z,98.57
2023-11-18T21:04:37.535Z,97.49
2023-11-18T21:07:05.913Z,97.32
2023-11-18T21:09:33.658Z,97.22
2023-11-18T21:12:17.492Z,97.32
2023-11-18T21:14:49.055Z,97.93
2023-11-18T21:17:16.984Z,98.18
2023-11-18T21:19:46.096Z,98.33
2023-11-18T21:22:19.044Z,98.48
2023-11-18T21:24:47.106Z,98.59
2023-11-18T21:27:15.781Z,98.34
2023-11-18T21:29:44.113Z,99.30
2023-11-18T21:32:13.061Z,99.37
2023-11-18T21:34:41.664Z,99.61
2023-11-18T21:37:11.586Z,99.27
2023-11-18T21:39:40.787Z,99.11
2023-11-18T21:42:08.714Z,98.38
2023-11-18T21:44:38.177Z,99.11
2023-11-18T21:47:06.214Z,100.00
2023-11-18T21:49:34.034Z,100.00
2023-11-18T21:52:01.811Z,100.00
2023-11-18T21:54:32.066Z,100.00
2023-11-18T21:56:59.953Z,100.00
2023-11-18T21:59:27.911Z,100.00
2023-11-18T22:01:56.702Z,100.00
2023-11-18T22:04:24.557Z,100.00
2023-11-18T22:06:55.080Z,100.00
2023-11-18T22:09:24.958Z,100.00
2023-11-18T22:11:54.789Z,100.00
2023-11-18T22:14:22.647Z,100.00
2023-11-18T22:16:50.648Z,100.00
2023-11-18T22:19:18.569Z,100.00
2023-11-18T22:21:46.441Z,100.00
2023-11-18T22:24:15.458Z,100.00
2023-11-18T22:26:44.283Z,100.00
2023-11-18T22:29:15.460Z,100.00
2023-11-18T22:31:46.105Z,100.00
2023-11-18T22:34:14.142Z,100.00
2023-11-18T22:36:43.710Z,100.00
2023-11-18T22:39:12.297Z,100.00
2023-11-18T22:41:41.721Z,100.00
2023-11-18T22:44:10.025Z,100.00
2023-11-18T22:46:39.224Z,100.00
2023-11-18T22:49:11.589Z,100.00
2023-11-18T22:51:39.444Z,100.00
2023-11-18T22:54:11.777Z,100.00
2023-11-18T22:56:39.704Z,100.00
2023-11-18T22:59:08.202Z,100.00
2023-11-18T23:01:37.866Z,100.00
2023-11-18T23:04:12.728Z,100.00
2023-11-18T23:06:41.947Z,100.00
2023-11-18T23:09:13.353Z,100.00
2023-11-18T23:11:41.965Z,100.00
2023-11-18T23:14:09.768Z,100.00
2023-11-18T23:16:37.612Z,100.00
2023-11-18T23:19:07.822Z,100.00
2023-11-18T23:21:37.135Z,100.00
2023-11-18T23:24:05.570Z,100.00
2023-11-18T23:26:33.395Z,100.00
2023-11-18T23:29:01.207Z,100.00
2023-11-18T23:31:29.439Z,99.83
2023-11-18T23:33:59.148Z,99.27
2023-11-18T23:36:27.132Z,99.92
2023-11-18T23:39:02.639Z,99.63
2023-11-18T23:41:31.059Z,99.56
2023-11-18T23:43:59.522Z,99.40
2023-11-18T23:46:27.944Z,99.15
2023-11-18T23:48:55.919Z,99.29
2023-11-18T23:51:23.749Z,99.15
2023-11-18T23:53:52.338Z,100.00
2023-11-18T23:56:21.602Z,100.00
2023-11-18T23:58:49.472Z,100.00
